createdAt,value
2022-11-30T00:01:41.848Z,30.58
2022-11-30T00:06:44.633Z,28.55
2022-11-30T00:11:48.760Z,29.33
2022-11-30T00:16:51.545Z,29.98
2022-11-30T00:21:54.420Z,29.15
2022-11-30T00:26:58.504Z,28.70
2022-11-30T00:32:01.284Z,29.67
2022-11-30T00:37:04.035Z,29.17
2022-11-30T00:42:08.443Z,30.38
2022-11-30T00:47:11.467Z,30.38
2022-11-30T00:52:14.208Z,30.83
2022-11-30T00:57:18.336Z,29.30
2022-11-30T01:02:21.183Z,29.67
2022-11-30T01:07:24.017Z,29.20
2022-11-30T01:12:28.229Z,29.85
2022-11-30T01:17:31.042Z,29.98
2022-11-30T01:22:33.820Z,30.58
2022-11-30T01:27:38.014Z,26.35
2022-11-30T01:32:40.828Z,28.88
2022-11-30T01:37:43.623Z,31.55
2022-11-30T01:42:48.460Z,30.05
2022-11-30T01:47:57.253Z,30.55
2022-11-30T01:53:00.186Z,29.10
2022-11-30T01:58:09.397Z,29.77
2022-11-30T02:03:18.414Z,28.58
2022-11-30T02:08:21.704Z,28.73
2022-11-30T02:13:39.106Z,28.25
2022-11-30T02:18:50.378Z,29.67
2022-11-30T02:24:23.232Z,28.05
2022-11-30T02:29:30.820Z,30.88
2022-11-30T02:34:36.824Z,31.77
2022-11-30T02:39:39.667Z,30.05
2022-11-30T02:44:46.370Z,31.25
2022-11-30T02:49:54.958Z,31.08
2022-11-30T02:55:01.059Z,31.23
2022-11-30T03:00:10.680Z,29.20
2022-11-30T03:05:13.548Z,28.17
2022-11-30T03:10:16.643Z,27.33
2022-11-30T03:15:20.783Z,26.08
2022-11-30T03:20:23.690Z,27.80
2022-11-30T03:25:26.496Z,24.65
2022-11-30T03:30:30.711Z,23.75
2022-11-30T03:35:33.473Z,24.92
2022-11-30T03:40:37.524Z,21.35
2022-11-30T03:45:41.746Z,24.67
2022-11-30T03:50:49.567Z,23.83
2022-11-30T03:55:56.676Z,22.80
2022-11-30T04:01:02.684Z,22.63
2022-11-30T04:06:07.079Z,22.73
2022-11-30T04:11:10.477Z,22.20
2022-11-30T04:16:14.719Z,23.65
2022-11-30T04:21:18.234Z,22.15
2022-11-30T04:26:21.100Z,23.50
2022-11-30T04:31:25.292Z,21.75
2022-11-30T04:36:28.202Z,19.00
2022-11-30T04:41:31.089Z,18.50
2022-11-30T04:46:35.239Z,19.83
2022-11-30T04:51:38.077Z,19.15
2022-11-30T04:56:40.907Z,18.20
2022-11-30T05:01:45.080Z,15.40
2022-11-30T05:06:47.871Z,11.40
2022-11-30T05:11:50.745Z,11.52
2022-11-30T05:16:54.950Z,10.63
2022-11-30T05:21:57.729Z,10.80
2022-11-30T05:27:01.057Z,10.60
2022-11-30T05:32:05.239Z,11.05
2022-11-30T05:37:08.015Z,10.57
2022-11-30T05:42:10.800Z,10.90
2022-11-30T05:47:15.560Z,10.93
2022-11-30T05:52:18.389Z,11.00
2022-11-30T05:57:21.161Z,10.60
2022-11-30T06:02:28.290Z,12.23
2022-11-30T06:07:31.557Z,11.05
2022-11-30T06:12:34.443Z,10.77
2022-11-30T06:17:38.808Z,12.48
2022-11-30T06:22:41.645Z,11.95
2022-11-30T06:27:44.586Z,11.40
2022-11-30T06:32:50.083Z,10.75
2022-11-30T06:37:52.914Z,11.20
2022-11-30T06:42:55.922Z,10.68
2022-11-30T06:48:00.044Z,9.75
2022-11-30T06:53:02.877Z,8.93
2022-11-30T06:58:07.493Z,9.93
2022-11-30T07:03:13.074Z,10.40
2022-11-30T07:08:17.683Z,9.20
2022-11-30T07:13:20.637Z,9.15
2022-11-30T07:18:30.300Z,9.27
2022-11-30T07:23:56.809Z,9.68
2022-11-30T07:29:00.084Z,10.77
2022-11-30T07:34:07.226Z,10.80
2022-11-30T07:39:09.975Z,10.50
2022-11-30T07:44:12.917Z,7.65
2022-11-30T07:49:17.076Z,12.68
2022-11-30T07:54:19.915Z,6.20
2022-11-30T07:59:22.837Z,5.63
2022-11-30T08:04:27.079Z,6.57
2022-11-30T08:09:30.023Z,6.80
2022-11-30T08:14:41.216Z,9.07
2022-11-30T08:24:59.703Z,17.25
2022-11-30T08:30:02.486Z,20.50
2022-11-30T08:35:07.667Z,20.40
2022-11-30T08:40:11.437Z,18.83
2022-11-30T08:45:14.288Z,20.67
2022-11-30T08:50:18.582Z,19.35
2022-11-30T08:55:21.355Z,20.17
2022-11-30T09:00:24.304Z,19.80
2022-11-30T09:05:28.493Z,20.95
2022-11-30T09:10:31.368Z,23.17
2022-11-30T09:15:34.184Z,23.42
2022-11-30T09:20:38.381Z,22.33
2022-11-30T09:25:41.223Z,23.65
2022-11-30T09:30:44.052Z,21.55
2022-11-30T09:35:56.189Z,28.08
2022-11-30T09:41:00.671Z,24.08
2022-11-30T09:46:07.177Z,24.73
2022-11-30T09:51:15.622Z,25.70
2022-11-30T09:56:24.493Z,26.73
2022-11-30T10:01:32.044Z,25.65
2022-11-30T10:06:45.991Z,25.23
2022-11-30T10:11:57.959Z,23.90
2022-11-30T10:17:10.734Z,21.33
2022-11-30T10:22:26.997Z,23.08
2022-11-30T10:27:42.012Z,24.63
2022-11-30T10:32:49.799Z,23.88
2022-11-30T10:37:54.681Z,23.25
2022-11-30T10:43:05.685Z,25.42
2022-11-30T10:48:14.157Z,22.95
2022-11-30T10:53:18.439Z,25.88
2022-11-30T10:58:27.488Z,25.70
2022-11-30T11:03:31.070Z,27.63
2022-11-30T11:08:35.505Z,26.33
2022-11-30T11:13:40.441Z,27.50
2022-11-30T11:18:54.436Z,27.65
2022-11-30T11:23:59.112Z,25.17
2022-11-30T11:29:02.356Z,25.55
2022-11-30T11:34:08.770Z,26.55
2022-11-30T11:39:26.664Z,24.90
2022-11-30T11:44:29.570Z,25.58
2022-11-30T11:49:35.475Z,23.60
2022-11-30T11:54:42.463Z,23.60
2022-11-30T11:59:51.929Z,22.23
2022-11-30T12:04:57.575Z,23.15
2022-11-30T12:10:49.484Z,22.83
2022-11-30T12:15:45.540Z,22.90
2022-11-30T12:20:56.946Z,22.92
2022-11-30T12:26:08.851Z,26.33
2022-11-30T12:31:15.211Z,25.10
2022-11-30T12:36:26.105Z,24.33
2022-11-30T12:41:38.143Z,26.10
2022-11-30T12:46:51.159Z,27.50
2022-11-30T12:52:02.400Z,25.15
2022-11-30T12:57:15.239Z,24.48
2022-11-30T13:02:41.732Z,23.50
2022-11-30T13:07:47.975Z,23.27
2022-11-30T13:12:55.332Z,24.40
2022-11-30T13:17:58.683Z,25.52
2022-11-30T13:23:07.398Z,23.50
2022-11-30T13:28:20.055Z,25.50
2022-11-30T13:39:09.682Z,29.20
2022-11-30T13:44:25.796Z,26.98
2022-11-30T13:49:31.027Z,31.50
2022-11-30T13:54:41.964Z,28.30
2022-11-30T13:59:53.299Z,31.15
2022-11-30T14:05:25.808Z,29.17
2022-11-30T14:10:30.354Z,29.73
2022-11-30T14:15:56.591Z,30.48
2022-11-30T14:21:02.836Z,29.25
2022-11-30T14:26:11.143Z,28.65
2022-11-30T14:31:18.672Z,29.77
2022-11-30T14:36:22.985Z,28.00
2022-11-30T14:41:28.954Z,29.38
2022-11-30T14:46:35.724Z,28.35
2022-11-30T14:51:39.357Z,27.90
2022-11-30T14:56:47.141Z,26.92
2022-11-30T15:01:57.089Z,26.77
2022-11-30T15:07:00.322Z,28.10
2022-11-30T15:12:03.120Z,24.67
2022-11-30T15:17:15.980Z,25.98
2022-11-30T15:22:22.596Z,26.75
2022-11-30T15:27:25.482Z,26.95
2022-11-30T15:32:30.022Z,26.85
2022-11-30T15:37:37.824Z,28.17
2022-11-30T15:42:41.527Z,30.42
2022-11-30T15:47:45.660Z,28.45
2022-11-30T15:52:51.055Z,28.65
2022-11-30T15:58:02.146Z,28.67
2022-11-30T16:03:10.703Z,29.13
2022-11-30T16:08:18.838Z,32.38
2022-11-30T16:13:23.599Z,31.17
2022-11-30T16:18:29.371Z,32.90
2022-11-30T16:23:35.411Z,33.83
2022-11-30T16:28:38.236Z,36.60
2022-11-30T16:33:42.436Z,37.63
2022-11-30T16:38:48.325Z,37.92
2022-11-30T16:43:52.692Z,39.08
2022-11-30T16:48:57.488Z,37.97
2022-11-30T16:54:00.348Z,36.72
2022-11-30T16:59:03.102Z,34.03
2022-11-30T17:04:13.032Z,35.22
2022-11-30T17:09:17.495Z,34.80
2022-11-30T17:14:21.237Z,35.03
2022-11-30T17:19:25.489Z,33.30
2022-11-30T17:24:28.296Z,33.80
2022-11-30T17:29:31.102Z,33.83
2022-11-30T17:34:35.278Z,36.67
2022-11-30T17:39:38.057Z,35.38
2022-11-30T17:44:40.884Z,34.25
2022-11-30T17:49:45.056Z,36.53
2022-11-30T17:54:48.116Z,37.55
2022-11-30T17:59:51.087Z,37.60
2022-11-30T18:04:55.796Z,38.47
2022-11-30T18:09:58.875Z,40.15
2022-11-30T18:15:01.685Z,39.25
2022-11-30T18:20:07.203Z,39.28
2022-11-30T18:25:10.210Z,39.92
2022-11-30T18:30:13.595Z,37.17
2022-11-30T18:35:17.799Z,35.70
2022-11-30T18:40:20.653Z,38.63
2022-11-30T18:45:23.426Z,37.15
2022-11-30T18:50:28.236Z,35.40
2022-11-30T18:55:31.223Z,35.75
2022-11-30T19:00:34.230Z,40.35
2022-11-30T19:05:39.783Z,39.67
2022-11-30T19:10:42.572Z,41.17
2022-11-30T19:15:45.417Z,38.78
2022-11-30T19:20:50.418Z,35.38
2022-11-30T19:25:53.227Z,36.53
2022-11-30T19:30:56.072Z,35.55
2022-11-30T19:36:02.859Z,32.35
2022-11-30T19:41:07.091Z,31.52
2022-11-30T19:46:12.561Z,28.65
2022-11-30T19:51:18.516Z,29.98
2022-11-30T19:56:21.666Z,29.05
2022-11-30T20:01:26.194Z,29.63
2022-11-30T20:06:32.326Z,29.23
2022-11-30T20:11:35.740Z,28.95
2022-11-30T20:16:38.572Z,30.20
2022-11-30T20:21:42.699Z,29.08
2022-11-30T20:26:45.749Z,27.33
2022-11-30T20:31:49.807Z,26.85
2022-11-30T20:36:53.952Z,28.67
2022-11-30T20:41:56.706Z,28.60
2022-11-30T20:46:59.488Z,26.48
2022-11-30T20:52:03.710Z,26.75
2022-11-30T20:57:06.547Z,28.63
2022-11-30T21:02:11.132Z,29.58
2022-11-30T21:07:15.403Z,28.77
2022-11-30T21:12:18.180Z,28.17
2022-11-30T21:17:21.061Z,25.92
2022-11-30T21:22:26.423Z,26.83
2022-11-30T21:27:29.284Z,27.33
2022-11-30T21:32:32.056Z,26.17
2022-11-30T21:37:36.286Z,28.88
2022-11-30T21:42:39.172Z,27.55
2022-11-30T21:47:41.964Z,26.13
2022-11-30T21:52:46.115Z,26.95
2022-11-30T21:57:48.911Z,27.08
2022-11-30T22:02:51.739Z,25.33
2022-11-30T22:07:55.900Z,25.90
2022-11-30T22:12:58.696Z,25.50
2022-11-30T22:18:01.460Z,27.25
2022-11-30T22:23:05.597Z,26.98
2022-11-30T22:28:08.368Z,25.52
2022-11-30T22:33:11.225Z,22.23
2022-11-30T22:38:16.360Z,23.27
2022-11-30T22:43:19.422Z,21.08
2022-11-30T22:48:22.292Z,19.48
2022-11-30T22:53:26.422Z,20.90
2022-11-30T22:58:29.208Z,21.05
2022-11-30T23:03:32.077Z,19.40
2022-11-30T23:08:37.059Z,20.48
2022-11-30T23:13:41.142Z,23.00
2022-11-30T23:18:45.851Z,23.13
2022-11-30T23:23:50.723Z,23.80
2022-11-30T23:28:54.821Z,22.90
2022-11-30T23:33:57.643Z,24.33
2022-11-30T23:39:04.064Z,25.40
2022-11-30T23:44:08.191Z,22.95
2022-11-30T23:49:13.302Z,23.73
2022-11-30T23:54:17.520Z,23.63
2022-11-30T23:59:20.448Z,23.92
